createdAt,value
2023-04-02T00:02:22.012Z,99393.31
2023-04-02T00:05:34.857Z,99401.22
2023-04-02T00:08:41.300Z,99395.84
2023-04-02T00:11:45.018Z,99394.13
2023-04-02T00:14:49.884Z,99400.03
2023-04-02T00:17:52.349Z,99395.78
2023-04-02T00:21:25.115Z,99398.47
2023-04-02T00:24:27.666Z,99402.66
2023-04-02T00:27:31.080Z,99400.78
2023-04-02T00:30:33.549Z,99386.84
2023-04-02T00:33:36.115Z,99385.09
2023-04-02T00:36:38.557Z,99393.84
2023-04-02T00:39:41.638Z,99396.50
2023-04-02T00:42:44.945Z,99398.31
2023-04-02T00:45:51.169Z,99409.00
2023-04-02T00:48:59.381Z,99403.72
2023-04-02T00:52:06.725Z,99401.25
2023-04-02T00:55:18.025Z,99403.91
2023-04-02T00:58:27.323Z,99413.47
2023-04-02T01:01:36.696Z,99401.28
2023-04-02T01:04:39.330Z,99402.06
2023-04-02T01:08:10.705Z,99403.84
2023-04-02T01:11:14.158Z,99415.22
2023-04-02T01:14:39.303Z,99413.47
2023-04-02T01:18:14.369Z,99406.47
2023-04-02T01:21:42.253Z,99413.47
2023-04-02T01:24:44.664Z,99414.34
2023-04-02T01:28:10.237Z,99415.22
2023-04-02T01:31:12.674Z,99416.09
2023-04-02T01:34:17.895Z,99420.44
2023-04-02T01:37:50.675Z,99416.13
2023-04-02T01:40:56.422Z,99417.88
2023-04-02T01:44:03.343Z,99418.06
2023-04-02T01:47:08.494Z,99426.91
2023-04-02T01:50:22.014Z,99437.16
2023-04-02T01:53:26.001Z,99429.19
2023-04-02T01:56:28.400Z,99437.13
2023-04-02T01:59:33.374Z,99426.69
2023-04-02T02:02:38.116Z,99429.31
2023-04-02T02:05:41.114Z,99428.53
2023-04-02T02:08:51.978Z,99439.72
2023-04-02T02:11:54.651Z,99431.00
2023-04-02T02:14:57.105Z,99430.03
2023-04-02T02:18:03.248Z,99437.97
2023-04-02T02:21:05.918Z,99437.94
2023-04-02T02:24:24.904Z,99439.72
2023-04-02T02:27:44.170Z,99439.72
2023-04-02T02:30:49.405Z,99435.38
2023-04-02T02:33:53.237Z,99443.19
2023-04-02T02:37:16.561Z,99441.38
2023-04-02T02:40:29.417Z,99443.03
2023-04-02T02:43:31.809Z,99443.09
2023-04-02T02:46:34.487Z,99438.63
2023-04-02T02:49:41.879Z,99441.28
2023-04-02T02:52:46.676Z,99448.28
2023-04-02T02:55:53.545Z,99441.28
2023-04-02T02:59:00.416Z,99448.31
2023-04-02T03:02:08.616Z,99448.28
2023-04-02T03:05:20.630Z,99442.19
2023-04-02T03:08:37.238Z,99442.25
2023-04-02T03:12:08.694Z,99437.94
2023-04-02T03:15:34.657Z,99441.47
2023-04-02T03:18:58.289Z,99434.50
2023-04-02T03:22:06.051Z,99441.47
2023-04-02T03:25:24.795Z,99442.28
2023-04-02T03:28:34.830Z,99437.91
2023-04-02T03:32:07.862Z,99443.19
2023-04-02T03:35:22.854Z,99443.09
2023-04-02T03:38:34.854Z,99443.88
2023-04-02T03:41:45.372Z,99445.69
2023-04-02T03:45:11.969Z,99446.63
2023-04-02T03:48:18.403Z,99449.22
2023-04-02T03:51:32.938Z,99440.47
2023-04-02T03:54:38.480Z,99446.50
2023-04-02T03:57:52.245Z,99458.53
2023-04-02T04:01:06.166Z,99449.78
2023-04-02T04:04:17.344Z,99454.03
2023-04-02T04:07:40.458Z,99467.84
2023-04-02T04:10:43.053Z,99464.41
2023-04-02T04:14:09.613Z,99471.41
2023-04-02T04:17:24.926Z,99467.78
2023-04-02T04:20:36.581Z,99472.25
2023-04-02T04:23:41.072Z,99477.34
2023-04-02T04:26:57.771Z,99483.31
2023-04-02T04:30:06.084Z,99480.59
2023-04-02T04:33:16.332Z,99483.13
2023-04-02T04:36:28.961Z,99483.94
2023-04-02T04:39:58.186Z,99485.91
2023-04-02T04:43:06.406Z,99497.84
2023-04-02T04:46:13.017Z,99494.41
2023-04-02T04:49:35.367Z,99498.75
2023-04-02T04:52:39.872Z,99494.44
2023-04-02T04:55:47.369Z,99505.91
2023-04-02T04:59:07.425Z,99499.03
2023-04-02T05:02:41.256Z,99500.06
2023-04-02T05:05:43.957Z,99500.00
2023-04-02T05:08:48.692Z,99498.59
2023-04-02T05:12:16.345Z,99494.44
2023-04-02T05:15:32.677Z,99498.81
2023-04-02T05:18:46.060Z,99513.72
2023-04-02T05:22:41.404Z,99518.19
2023-04-02T05:25:55.352Z,99512.28
2023-04-02T05:29:19.990Z,99510.59
2023-04-02T05:32:30.461Z,99508.97
2023-04-02T05:35:35.969Z,99509.91
2023-04-02T05:38:40.768Z,99517.84
2023-04-02T05:41:46.063Z,99526.84
2023-04-02T05:45:13.612Z,99527.78
2023-04-02T05:48:19.017Z,99527.09
2023-04-02T05:51:24.891Z,99529.94
2023-04-02T05:54:31.581Z,99532.75
2023-04-02T05:57:43.850Z,99534.59
2023-04-02T06:00:53.633Z,99530.28
2023-04-02T06:04:18.672Z,99533.97
2023-04-02T06:07:22.254Z,99533.19
2023-04-02T06:10:36.964Z,99537.59
2023-04-02T06:13:39.666Z,99546.38
2023-04-02T06:16:46.824Z,99539.50
2023-04-02T06:19:49.446Z,99543.94
2023-04-02T06:22:57.198Z,99543.94
2023-04-02T06:26:27.158Z,99535.31
2023-04-02T06:29:41.421Z,99548.50
2023-04-02T06:32:48.985Z,99551.13
2023-04-02T06:35:52.524Z,99540.63
2023-04-02T06:39:08.481Z,99550.28
2023-04-02T06:42:26.722Z,99554.66
2023-04-02T06:45:47.262Z,99554.66
2023-04-02T06:49:17.831Z,99555.53
2023-04-02T06:52:28.665Z,99551.16
2023-04-02T06:55:53.609Z,99554.63
2023-04-02T06:59:00.743Z,99551.03
2023-04-02T07:02:22.649Z,99553.50
2023-04-02T07:05:25.538Z,99557.94
2023-04-02T07:08:29.596Z,99550.16
2023-04-02T07:11:32.287Z,99559.72
2023-04-02T07:14:37.944Z,99554.38
2023-04-02T07:17:40.807Z,99557.13
2023-04-02T07:20:44.264Z,99568.50
2023-04-02T07:23:49.355Z,99553.34
2023-04-02T07:26:52.140Z,99570.09
2023-04-02T07:29:55.075Z,99562.28
2023-04-02T07:32:57.540Z,99567.53
2023-04-02T07:36:00.016Z,99570.97
2023-04-02T07:39:02.883Z,99582.38
2023-04-02T07:42:05.563Z,99579.78
2023-04-02T07:45:08.672Z,99582.38
2023-04-02T07:48:12.668Z,99584.94
2023-04-02T07:51:26.169Z,99590.22
2023-04-02T07:54:28.757Z,99590.28
2023-04-02T07:57:31.433Z,99589.31
2023-04-02T08:00:33.957Z,99591.69
2023-04-02T08:03:36.858Z,99600.50
2023-04-02T08:06:39.721Z,99606.59
2023-04-02T08:09:42.188Z,99610.09
2023-04-02T08:12:45.037Z,99614.59
2023-04-02T08:15:47.525Z,99613.63
2023-04-02T08:18:50.566Z,99612.00
2023-04-02T08:21:54.468Z,99624.25
2023-04-02T08:24:57.213Z,99628.63
2023-04-02T08:28:01.569Z,99625.97
2023-04-02T08:31:05.364Z,99625.88
2023-04-02T08:34:08.117Z,99625.06
2023-04-02T08:37:13.474Z,99629.25
2023-04-02T08:40:24.920Z,99630.66
2023-04-02T08:43:51.112Z,99625.41
2023-04-02T08:46:56.946Z,99635.06
2023-04-02T08:50:01.741Z,99629.78
2023-04-02T08:53:06.508Z,99639.53
2023-04-02T08:56:09.907Z,99642.03
2023-04-02T08:59:21.352Z,99638.03
2023-04-02T09:02:36.087Z,99642.06
2023-04-02T09:05:41.168Z,99629.09
2023-04-02T09:08:44.819Z,99632.38
2023-04-02T09:11:53.336Z,99629.16
2023-04-02T09:15:11.223Z,99640.06
2023-04-02T09:18:17.731Z,99633.53
2023-04-02T09:21:29.260Z,99625.88
2023-04-02T09:24:31.836Z,99632.69
2023-04-02T09:27:36.016Z,99634.47
2023-04-02T09:30:38.348Z,99629.13
2023-04-02T09:33:49.035Z,99637.09
2023-04-02T09:36:52.154Z,99635.31
2023-04-02T09:39:54.347Z,99641.94
2023-04-02T09:43:19.943Z,99649.53
2023-04-02T09:46:26.047Z,99651.00
2023-04-02T09:49:33.614Z,99656.38
2023-04-02T09:52:36.472Z,99657.44
2023-04-02T09:55:38.670Z,99654.00
2023-04-02T09:58:42.014Z,99654.97
2023-04-02T10:01:54.102Z,99664.13
2023-04-02T10:04:56.787Z,99666.38
2023-04-02T10:08:25.449Z,99671.84
2023-04-02T10:11:43.597Z,99669.19
2023-04-02T10:14:48.474Z,99658.19
2023-04-02T10:17:57.914Z,99658.06
2023-04-02T10:21:01.444Z,99658.34
2023-04-02T10:24:17.821Z,99657.19
2023-04-02T10:27:32.012Z,99655.63
2023-04-02T10:31:01.671Z,99651.59
2023-04-02T10:34:07.577Z,99654.16
2023-04-02T10:37:48.959Z,99655.16
2023-04-02T10:40:59.637Z,99649.22
2023-04-02T10:44:24.240Z,99652.00
2023-04-02T10:47:41.396Z,99648.31
2023-04-02T10:51:01.804Z,99648.16
2023-04-02T10:54:13.502Z,99653.78
2023-04-02T10:57:18.981Z,99645.47
2023-04-02T11:00:27.949Z,99647.53
2023-04-02T11:03:37.498Z,99658.06
2023-04-02T11:07:07.054Z,99655.13
2023-04-02T11:10:16.482Z,99654.78
2023-04-02T11:13:28.901Z,99659.09
2023-04-02T11:16:31.516Z,99655.81
2023-04-02T11:19:34.044Z,99656.84
2023-04-02T11:22:36.365Z,99646.75
2023-04-02T11:25:38.992Z,99642.66
2023-04-02T11:28:41.417Z,99642.47
2023-04-02T11:31:44.144Z,99646.75
2023-04-02T11:35:03.091Z,99641.84
2023-04-02T11:38:10.762Z,99636.88
2023-04-02T11:41:13.163Z,99626.22
2023-04-02T11:44:25.352Z,99623.22
2023-04-02T11:47:28.684Z,99621.19
2023-04-02T11:50:34.632Z,99628.50
2023-04-02T11:53:37.171Z,99641.50
2023-04-02T11:56:53.328Z,99636.38
2023-04-02T12:00:18.579Z,99624.84
2023-04-02T12:03:53.084Z,99631.75
2023-04-02T12:07:07.565Z,99622.84
2023-04-02T12:10:18.373Z,99617.94
2023-04-02T12:13:41.802Z,99612.66
2023-04-02T12:16:44.434Z,99619.81
2023-04-02T12:19:55.466Z,99617.41
2023-04-02T12:22:58.192Z,99604.91
2023-04-02T12:26:02.389Z,99607.97
2023-04-02T12:29:24.910Z,99613.97
2023-04-02T12:32:29.939Z,99597.03
2023-04-02T12:35:34.323Z,99594.28
2023-04-02T12:38:47.103Z,99593.34
2023-04-02T12:41:49.821Z,99583.00
2023-04-02T12:44:52.226Z,99582.53
2023-04-02T12:47:54.956Z,99585.78
2023-04-02T12:50:57.901Z,99586.38
2023-04-02T12:54:00.595Z,99581.59
2023-04-02T12:57:27.731Z,99574.31
2023-04-02T13:00:30.689Z,99573.56
2023-04-02T13:03:36.503Z,99581.19
2023-04-02T13:06:39.719Z,99582.91
2023-04-02T13:09:46.176Z,99591.41
2023-04-02T13:12:49.062Z,99596.47
2023-04-02T13:16:04.112Z,99600.38
2023-04-02T13:19:10.818Z,99597.00
2023-04-02T13:22:30.836Z,99594.69
2023-04-02T13:25:35.997Z,99598.72
2023-04-02T13:28:38.667Z,99596.25
2023-04-02T13:31:41.632Z,99587.78
2023-04-02T13:34:44.065Z,99590.25
2023-04-02T13:37:46.570Z,99588.56
2023-04-02T13:40:49.213Z,99593.84
2023-04-02T13:43:51.582Z,99602.38
2023-04-02T13:46:54.663Z,99593.38
2023-04-02T13:49:57.192Z,99599.53
2023-04-02T13:53:04.604Z,99603.84
2023-04-02T13:56:08.518Z,99612.88
2023-04-02T13:59:11.061Z,99600.25
2023-04-02T14:02:18.094Z,99589.72
2023-04-02T14:05:38.889Z,99595.72
2023-04-02T14:09:13.683Z,99595.78
2023-04-02T14:12:31.492Z,99592.38
2023-04-02T14:15:58.931Z,99586.53
2023-04-02T14:19:07.629Z,99593.59
2023-04-02T14:22:42.418Z,99587.41
2023-04-02T14:26:02.200Z,99591.75
2023-04-02T14:29:17.304Z,99590.13
2023-04-02T14:32:24.646Z,99587.81
2023-04-02T14:35:43.033Z,99595.09
2023-04-02T14:38:48.367Z,99599.44
2023-04-02T14:41:59.312Z,99598.75
2023-04-02T14:45:28.349Z,99611.16
2023-04-02T14:48:31.119Z,99616.69
2023-04-02T14:51:41.672Z,99621.19
2023-04-02T14:54:50.291Z,99633.28
2023-04-02T14:57:53.679Z,99640.28
2023-04-02T15:01:20.777Z,99651.66
2023-04-02T15:04:39.320Z,99672.56
2023-04-02T15:08:01.183Z,99668.47
2023-04-02T15:11:18.048Z,99681.72
2023-04-02T15:14:29.558Z,99692.66
2023-04-02T15:17:33.228Z,99683.16
2023-04-02T15:20:57.266Z,99706.97
2023-04-02T15:24:48.911Z,99705.41
2023-04-02T15:28:12.610Z,99714.22
2023-04-02T15:31:15.381Z,99725.66
2023-04-02T15:34:20.875Z,99740.56
2023-04-02T15:37:43.213Z,99745.81
2023-04-02T15:40:45.784Z,99748.31
2023-04-02T15:43:55.874Z,99758.69
2023-04-02T15:47:34.419Z,99755.16
2023-04-02T15:50:44.856Z,99756.81
2023-04-02T15:53:59.740Z,99748.81
2023-04-02T15:57:27.860Z,99750.66
2023-04-02T16:00:54.964Z,99757.50
2023-04-02T16:04:19.651Z,99755.56
2023-04-02T16:07:32.481Z,99747.47
2023-04-02T16:10:41.978Z,99749.41
2023-04-02T16:13:45.698Z,99755.59
2023-04-02T16:16:49.191Z,99747.88
2023-04-02T16:19:53.431Z,99746.31
2023-04-02T16:23:05.717Z,99748.19
2023-04-02T16:26:20.235Z,99746.53
2023-04-02T16:29:40.754Z,99747.47
2023-04-02T16:33:01.792Z,99752.84
2023-04-02T16:36:31.423Z,99760.72
2023-04-02T16:39:42.072Z,99765.13
2023-04-02T16:43:14.016Z,99780.94
2023-04-02T16:46:55.729Z,99792.31
2023-04-02T16:50:16.430Z,99802.75
2023-04-02T16:53:27.687Z,99803.53
2023-04-02T16:56:39.652Z,99802.63
2023-04-02T16:59:45.112Z,99797.31
2023-04-02T17:03:15.096Z,99802.53
2023-04-02T17:06:26.612Z,99805.19
2023-04-02T17:09:39.893Z,99806.88
2023-04-02T17:12:47.043Z,99807.69
2023-04-02T17:16:14.559Z,99821.66
2023-04-02T17:19:17.327Z,99818.88
2023-04-02T17:22:21.723Z,99822.28
2023-04-02T17:25:30.780Z,99824.75
2023-04-02T17:28:39.288Z,99831.72
2023-04-02T17:31:42.801Z,99840.22
2023-04-02T17:34:45.855Z,99842.88
2023-04-02T17:38:15.087Z,99848.91
2023-04-02T17:41:38.665Z,99848.63
2023-04-02T17:44:47.129Z,99861.00
2023-04-02T17:47:56.411Z,99859.84
2023-04-02T17:51:30.373Z,99870.25
2023-04-02T17:54:42.767Z,99875.22
2023-04-02T17:58:01.331Z,99868.22
2023-04-02T18:01:06.997Z,99880.25
2023-04-02T18:04:22.221Z,99884.47
2023-04-02T18:07:43.344Z,99881.84
2023-04-02T18:11:05.229Z,99900.81
2023-04-02T18:14:37.846Z,99910.28
2023-04-02T18:17:53.482Z,99912.00
2023-04-02T18:21:26.695Z,99923.31
2023-04-02T18:24:46.513Z,99924.81
2023-04-02T18:28:16.472Z,99934.88
2023-04-02T18:31:33.625Z,99940.72
2023-04-02T18:34:48.155Z,99947.69
2023-04-02T18:38:28.284Z,99944.38
2023-04-02T18:41:49.181Z,99939.06
2023-04-02T18:45:10.824Z,99948.66
2023-04-02T18:48:28.967Z,99944.06
2023-04-02T18:51:34.649Z,99957.75
2023-04-02T18:54:52.960Z,99957.75
2023-04-02T18:58:21.545Z,99968.88
2023-04-02T19:01:33.519Z,99973.09
2023-04-02T19:04:36.298Z,99969.53
2023-04-02T19:07:39.346Z,99977.38
2023-04-02T19:10:46.507Z,99986.75
2023-04-02T19:13:51.421Z,99986.72
2023-04-02T19:17:15.064Z,99994.53
2023-04-02T19:20:44.186Z,99992.66
2023-04-02T19:24:03.050Z,99996.03
2023-04-02T19:27:28.451Z,99997.63
2023-04-02T19:30:59.410Z,100005.75
2023-04-02T19:34:46.944Z,100010.91
2023-04-02T19:38:10.703Z,100015.97
2023-04-02T19:41:36.073Z,100014.06
2023-04-02T19:44:39.878Z,100016.03
2023-04-02T19:47:42.470Z,100020.25
2023-04-02T19:50:45.608Z,100040.25
2023-04-02T19:53:47.983Z,100026.91
2023-04-02T19:56:50.511Z,100039.22
2023-04-02T19:59:53.002Z,100045.09
2023-04-02T20:02:55.445Z,100052.97
2023-04-02T20:06:10.057Z,100048.06
2023-04-02T20:09:12.480Z,100052.28
2023-04-02T20:12:14.913Z,100064.41
2023-04-02T20:15:17.399Z,100070.47
2023-04-02T20:18:20.569Z,100072.34
2023-04-02T20:21:23.036Z,100079.38
2023-04-02T20:24:25.963Z,100079.19
2023-04-02T20:27:28.428Z,100085.97
2023-04-02T20:30:32.513Z,100091.25
2023-04-02T20:33:35.787Z,100098.75
2023-04-02T20:36:38.272Z,100111.91
2023-04-02T20:39:41.010Z,100112.66
2023-04-02T20:42:43.471Z,100111.72
2023-04-02T20:45:59.266Z,100110.56
2023-04-02T20:49:02.392Z,100119.25
2023-04-02T20:52:05.248Z,100124.34
2023-04-02T20:55:08.744Z,100133.75
2023-04-02T20:58:11.324Z,100144.06
2023-04-02T21:01:24.049Z,100143.25
2023-04-02T21:04:27.949Z,100139.59
2023-04-02T21:07:30.576Z,100149.03
2023-04-02T21:10:32.944Z,100151.13
2023-04-02T21:13:36.764Z,100154.53
2023-04-02T21:16:40.524Z,100143.81
2023-04-02T21:19:43.969Z,100165.28
2023-04-02T21:22:46.501Z,100173.13
2023-04-02T21:25:59.598Z,100165.75
2023-04-02T21:29:02.245Z,100169.13
2023-04-02T21:32:14.485Z,100170.09
2023-04-02T21:35:23.754Z,100165.59
2023-04-02T21:38:26.529Z,100178.63
2023-04-02T21:41:31.256Z,100178.59
2023-04-02T21:44:33.755Z,100181.78
2023-04-02T21:47:36.292Z,100194.63
2023-04-02T21:50:38.748Z,100189.56
2023-04-02T21:53:41.443Z,100202.31
2023-04-02T21:56:44.841Z,100197.41
2023-04-02T21:59:47.304Z,100203.44
2023-04-02T22:02:49.833Z,100207.72
2023-04-02T22:06:09.546Z,100212.69
2023-04-02T22:09:16.797Z,100220.75
2023-04-02T22:12:19.207Z,100212.03
2023-04-02T22:15:21.737Z,100213.09
2023-04-02T22:18:24.210Z,100224.91
2023-04-02T22:21:26.723Z,100230.97
2023-04-02T22:24:29.233Z,100229.94
2023-04-02T22:27:31.635Z,100224.72
2023-04-02T22:30:34.448Z,100237.00
2023-04-02T22:33:37.323Z,100241.53
2023-04-02T22:36:39.807Z,100242.19
2023-04-02T22:39:42.186Z,100249.28
2023-04-02T22:42:44.631Z,100244.78
2023-04-02T22:45:50.069Z,100251.72
2023-04-02T22:48:53.586Z,100258.00
2023-04-02T22:51:56.012Z,100259.53
2023-04-02T22:54:58.465Z,100259.59
2023-04-02T22:58:00.836Z,100255.94
2023-04-02T23:01:33.128Z,100258.63
2023-04-02T23:04:36.405Z,100261.16
2023-04-02T23:07:38.830Z,100266.75
2023-04-02T23:10:41.355Z,100270.25
2023-04-02T23:13:43.908Z,100258.94
2023-04-02T23:16:46.406Z,100270.81
2023-04-02T23:19:48.852Z,100279.22
2023-04-02T23:22:51.375Z,100288.50
2023-04-02T23:26:14.369Z,100287.69
2023-04-02T23:29:16.744Z,100295.25
2023-04-02T23:32:19.735Z,100292.63
2023-04-02T23:35:22.154Z,100296.78
2023-04-02T23:38:25.659Z,100291.63
2023-04-02T23:41:28.440Z,100299.50
2023-04-02T23:44:31.071Z,100294.09
2023-04-02T23:47:33.635Z,100302.38
2023-04-02T23:50:36.266Z,100298.97
2023-04-02T23:53:39.148Z,100299.91
2023-04-02T23:56:41.743Z,100296.16
2023-04-02T23:59:44.108Z,100296.31
